Aérodrome :
LOGIN :

S'inscrire | Disclaimer

   EN    FR    IT 

 










Légende :    VFR   VFR Marginal   IFR   IFR Intensif   IFR Très Intensif
Visi : 
Plafond : 
>= 8 km
>= 3000ft
5 à 8 km
1000 à 3000 ft
1500m à 5 km
500 à 1000 ft
800 à 1500m
200 à 500 ft
< 800m
< 200 ft
Symboles :   Orages  Brouillard  Fortes neiges  Fortes précipitations  Vent > 20 kt
SIGMETs :   Divers  Orages  Givrage  Turbulence  Onde Orograph.  Cendres Volcan.






- Altitude de l'aérodrome : 468 ft
- Code IATA : GRO


LEGE - Girona Costa Brava

DERNIER METAR :
  • 150400Z 34003KT 300V020 9999 -RA FEW070 15/14 Q1010

METARs EXPIRÉS :
  • 150330Z 00000KT 9999 -RA SCT070 15/15 Q1010
  • 150300Z VRB02KT 9999 -RA SCT070 15/15 Q1010
  • 150230Z VRB01KT 9999 SCT070 16/15 Q1010 RERA
  • 150200Z 13004KT 070V190 9999 -RA VCTS FEW030CB BKN075 16/15 Q1010
  • 150130Z VRB02KT 9999 -RA VCTS SCT030CB BKN060 16/15 Q1009
  • 150107Z 30007KT 240V020 9999 RA VCTS SCT030CB SCT045 BKN060 17/15 Q1009

TAF TAF LEGE
Valide du 15 à 00h jusqu'au 16 à 00h UTC


142300Z 1500/1524 VRB04KT 9999 SCT025 TX22/1513Z TN12/1506Z
PROB30
TEMPO 1500/1504 2000 BR TSRA SCT010 SCT030CB
BECMG 1510/1512 13008KT
BECMG 1516/1518 VRB03KT



MET'MAP, la Météo Aéronautique d'un coup d'oeil ! - Copyright ORBIFLY Décembre 2007 - Disclaimer

ORBIFLY MET'MAP TEAM :

Programmation & Développement : Alexandra Zaïnal
Conception & Développement : Baudouin d'Aumeries
Co-Programmation & Développement : Marc-Olivier Méhu
Soutien technique & logistique : Manuel Goepfert

Contact : metmap@orbifly.com




SOURCES & CREDITS :

   NOAA